Terminal Aerodrome Forecast
Issued by NWS Bismarck, ND

Home | Current Version | Previous Version | Graphics & Text | Print | Product List | Glossary On
Versions: 1 2 3 4 5 6 7 8 9 10 11 12 13 14 15 16 17
000
FTUS43 KBIS 151700 RRA
TAFISN
TAF
KISN 151741Z 1518/1618 15016G23KT P6SM BKN100
     FM160000 11013KT P6SM BKN050
     FM160300 07010KT 4SM -SN BKN025
     FM160800 04008KT P6SM VCSH OVC015
     FM161100 05010KT P6SM OVC007=

USA.gov is the U.S. government's official web portal to all federal, state and local government web resources and services.